createdAt,value
2023-03-15T00:02:04.040Z,74.64
2023-03-15T00:04:34.112Z,73.25
2023-03-15T00:07:06.692Z,74.50
2023-03-15T00:09:36.101Z,72.61
2023-03-15T00:12:06.067Z,72.92
2023-03-15T00:14:35.686Z,72.54
2023-03-15T00:17:04.329Z,76.99
2023-03-15T00:19:34.320Z,74.28
2023-03-15T00:22:02.941Z,74.15
2023-03-15T00:24:33.595Z,76.81
2023-03-15T00:27:06.070Z,78.82
2023-03-15T00:29:37.075Z,77.26
2023-03-15T00:32:06.191Z,78.30
2023-03-15T00:34:34.861Z,76.31
2023-03-15T00:37:06.887Z,74.50
2023-03-15T00:39:45.316Z,73.73
2023-03-15T00:42:18.965Z,76.53
2023-03-15T00:44:54.357Z,76.68
2023-03-15T00:47:22.909Z,73.89
2023-03-15T00:49:52.136Z,74.47
2023-03-15T00:52:22.163Z,73.14
2023-03-15T00:54:55.193Z,74.94
2023-03-15T00:57:27.878Z,74.98
2023-03-15T00:59:58.549Z,73.91
2023-03-15T01:02:31.642Z,73.14
2023-03-15T01:05:00.869Z,74.14
2023-03-15T01:07:30.274Z,74.55
2023-03-15T01:10:02.139Z,75.03
2023-03-15T01:12:34.970Z,74.21
2023-03-15T01:15:06.057Z,74.60
2023-03-15T01:17:35.436Z,74.62
2023-03-15T01:20:05.609Z,75.05
2023-03-15T01:22:36.810Z,74.62
2023-03-15T01:25:06.572Z,73.62
2023-03-15T01:27:36.040Z,73.68
2023-03-15T01:30:04.648Z,73.13
2023-03-15T01:32:36.102Z,74.40
2023-03-15T01:35:04.742Z,73.52
2023-03-15T01:37:34.540Z,75.29
2023-03-15T01:40:06.929Z,75.13
2023-03-15T01:42:52.665Z,75.03
2023-03-15T01:46:07.544Z,75.42
2023-03-15T01:48:45.048Z,76.57
2023-03-15T01:51:18.405Z,76.93
2023-03-15T01:53:53.291Z,78.33
2023-03-15T01:56:26.066Z,79.20
2023-03-15T01:58:58.763Z,78.50
2023-03-15T02:01:28.212Z,77.46
2023-03-15T02:04:06.625Z,76.93
2023-03-15T02:06:36.576Z,77.02
2023-03-15T02:09:15.568Z,77.57
2023-03-15T02:11:48.081Z,76.92
2023-03-15T02:14:19.362Z,77.59
2023-03-15T02:16:54.173Z,77.74
2023-03-15T02:19:36.919Z,78.22
2023-03-15T02:22:22.220Z,78.35
2023-03-15T02:24:58.010Z,78.45
2023-03-15T02:28:01.605Z,78.35
2023-03-15T02:31:00.787Z,79.33
2023-03-15T02:34:00.805Z,79.76
2023-03-15T02:36:33.552Z,79.79
2023-03-15T02:39:04.593Z,79.84
2023-03-15T02:41:52.324Z,80.19
2023-03-15T02:45:16.677Z,79.95
2023-03-15T02:51:09.417Z,80.01
2023-03-15T03:06:18.321Z,80.49
2023-03-15T03:10:07.209Z,80.81
2023-03-15T05:50:13.188Z,80.58
2023-03-15T06:00:51.802Z,87.67
2023-03-15T06:03:39.646Z,88.49
2023-03-15T06:06:20.132Z,90.05
2023-03-15T06:08:53.185Z,91.00
2023-03-15T06:11:22.175Z,90.65
2023-03-15T06:13:53.287Z,91.05
2023-03-15T06:16:21.992Z,91.52
2023-03-15T06:18:51.702Z,92.36
2023-03-15T06:21:24.139Z,92.34
2023-03-15T06:23:57.265Z,91.95
2023-03-15T06:26:26.983Z,92.48
2023-03-15T06:28:55.668Z,92.88
2023-03-15T06:31:24.131Z,92.04
2023-03-15T06:33:55.269Z,92.14
2023-03-15T06:40:23.568Z,91.40
2023-03-15T06:42:56.886Z,91.08
2023-03-15T06:45:26.856Z,90.59
2023-03-15T06:47:57.957Z,89.61
2023-03-15T06:50:46.014Z,89.98
2023-03-15T06:53:18.981Z,89.18
2023-03-15T06:55:55.038Z,89.49
2023-03-15T06:58:35.502Z,89.38
2023-03-15T07:01:24.815Z,89.34
2023-03-15T07:03:53.254Z,90.08
2023-03-15T07:06:21.392Z,89.65
2023-03-15T07:08:51.963Z,89.15
2023-03-15T07:11:26.033Z,89.05
2023-03-15T07:13:54.432Z,89.62
2023-03-15T07:16:25.215Z,89.85
2023-03-15T07:18:56.851Z,89.38
2023-03-15T07:21:29.396Z,90.36
2023-03-15T07:24:03.452Z,89.80
2023-03-15T07:26:36.224Z,90.42
2023-03-15T07:29:41.664Z,90.08
2023-03-15T07:35:49.968Z,90.38
2023-03-15T07:44:32.367Z,89.43
2023-03-15T07:47:06.548Z,89.49
2023-03-15T07:49:54.423Z,88.75
2023-03-15T07:52:23.566Z,88.24
2023-03-15T07:54:51.611Z,87.66
2023-03-15T07:57:23.156Z,87.20
2023-03-15T07:59:54.347Z,87.08
2023-03-15T08:02:23.832Z,86.99
2023-03-15T08:04:51.935Z,86.96
2023-03-15T08:07:20.129Z,87.08
2023-03-15T08:09:48.987Z,86.49
2023-03-15T08:12:17.051Z,86.10
2023-03-15T08:14:47.579Z,84.61
2023-03-15T08:17:18.519Z,85.29
2023-03-15T08:19:47.556Z,85.97
2023-03-15T08:22:18.443Z,84.92
2023-03-15T08:24:46.670Z,84.02
2023-03-15T08:27:16.922Z,83.49
2023-03-15T08:29:53.318Z,82.50
2023-03-15T08:32:22.182Z,85.61
2023-03-15T08:34:53.164Z,83.51
2023-03-15T08:37:22.441Z,84.10
2023-03-15T08:39:58.862Z,85.22
2023-03-15T08:42:27.768Z,84.88
2023-03-15T08:44:59.544Z,83.37
2023-03-15T08:47:29.206Z,82.96
2023-03-15T08:50:05.858Z,82.14
2023-03-15T08:52:39.445Z,81.55
2023-03-15T08:55:16.516Z,81.91
2023-03-15T08:57:45.434Z,80.36
2023-03-15T09:00:20.972Z,80.56
2023-03-15T09:02:50.379Z,81.11
2023-03-15T09:05:19.635Z,81.69
2023-03-15T09:07:48.424Z,81.23
2023-03-15T09:10:19.294Z,83.02
2023-03-15T09:12:52.134Z,83.23
2023-03-15T09:15:28.056Z,82.63
2023-03-15T09:17:56.909Z,82.79
2023-03-15T09:20:29.094Z,80.90
2023-03-15T09:23:03.113Z,79.35
2023-03-15T09:25:31.533Z,79.24
2023-03-15T09:27:59.667Z,77.99
2023-03-15T09:30:29.813Z,77.73
2023-03-15T09:33:00.835Z,77.78
2023-03-15T09:35:31.108Z,77.58
2023-03-15T09:38:00.987Z,75.99
2023-03-15T09:40:30.837Z,77.61
2023-03-15T09:43:16.411Z,76.63
2023-03-15T09:46:21.311Z,76.15
2023-03-15T09:48:56.919Z,75.60
2023-03-15T09:51:39.645Z,76.28
2023-03-15T09:54:14.189Z,73.84
2023-03-15T09:56:51.983Z,74.71
2023-03-15T09:59:36.071Z,74.28
2023-03-15T10:02:22.310Z,77.39
2023-03-15T10:04:55.878Z,75.12
2023-03-15T10:07:28.508Z,75.52
2023-03-15T10:10:02.114Z,73.42
2023-03-15T10:12:40.791Z,73.01
2023-03-15T10:15:26.178Z,75.61
2023-03-15T10:18:12.699Z,69.74
2023-03-15T10:20:46.308Z,71.84
2023-03-15T10:23:20.900Z,74.35
2023-03-15T10:25:52.609Z,69.92
2023-03-15T10:28:26.043Z,72.93
2023-03-15T10:30:54.418Z,73.94
2023-03-15T10:33:29.450Z,73.51
2023-03-15T10:36:09.691Z,73.95
2023-03-15T10:38:42.243Z,71.36
2023-03-15T10:41:28.765Z,70.05
2023-03-15T10:44:12.960Z,69.90
2023-03-15T10:46:42.331Z,69.31
2023-03-15T10:49:14.017Z,70.89
2023-03-15T10:51:46.595Z,69.57
2023-03-15T10:54:32.084Z,68.34
2023-03-15T10:57:20.118Z,70.16
2023-03-15T11:04:16.696Z,67.20
2023-03-15T11:06:49.551Z,67.32
2023-03-15T11:09:23.951Z,67.55
2023-03-15T11:12:05.170Z,64.90
2023-03-15T11:14:40.375Z,66.13
2023-03-15T11:17:18.268Z,65.71
2023-03-15T11:19:59.489Z,64.79
2023-03-15T11:22:28.037Z,63.52
2023-03-15T11:25:01.525Z,59.89
2023-03-15T11:27:33.438Z,60.31
2023-03-15T11:30:04.441Z,60.04
2023-03-15T11:32:37.079Z,60.33
2023-03-15T11:35:12.789Z,58.14
2023-03-15T11:40:34.492Z,57.77
2023-03-15T11:43:09.192Z,54.96
2023-03-15T11:45:43.838Z,54.64
2023-03-15T11:48:25.924Z,53.48
2023-03-15T11:51:05.220Z,54.06
2023-03-15T11:53:40.297Z,53.01
2023-03-15T11:56:31.090Z,53.46
2023-03-15T11:59:20.192Z,52.38
2023-03-15T12:05:15.861Z,55.05
2023-03-15T12:08:19.826Z,55.50
2023-03-15T12:10:52.803Z,56.65
2023-03-15T12:13:25.595Z,54.50
2023-03-15T12:21:35.996Z,52.09
2023-03-15T12:24:23.554Z,52.35
2023-03-15T12:27:02.549Z,53.49
2023-03-15T12:29:48.045Z,53.04
2023-03-15T12:32:35.693Z,52.94
2023-03-15T12:35:15.586Z,53.66
2023-03-15T12:41:04.040Z,51.98
2023-03-15T12:44:00.536Z,53.05
2023-03-15T12:46:58.787Z,53.53
2023-03-15T12:52:47.610Z,50.28
2023-03-15T12:55:35.648Z,50.37
2023-03-15T13:01:55.511Z,49.46
2023-03-15T13:11:14.827Z,53.47
2023-03-15T13:17:27.535Z,52.57
2023-03-15T13:20:20.130Z,52.80
2023-03-15T13:22:56.439Z,52.15
2023-03-15T13:25:47.484Z,50.52
2023-03-15T13:28:26.485Z,48.93
2023-03-15T13:30:59.981Z,48.86
2023-03-15T13:33:34.299Z,48.25
2023-03-15T13:36:07.054Z,47.62
2023-03-15T13:38:43.748Z,47.82
2023-03-15T13:41:24.795Z,47.98
2023-03-15T13:44:01.474Z,48.09
2023-03-15T13:46:38.532Z,49.12
2023-03-15T13:49:14.398Z,47.47
2023-03-15T13:52:07.573Z,47.78
2023-03-15T13:54:43.197Z,46.93
2023-03-15T14:00:17.201Z,43.99
2023-03-15T14:09:20.552Z,44.70
2023-03-15T14:15:13.589Z,46.00
2023-03-15T14:17:55.580Z,44.22
2023-03-15T14:20:34.531Z,45.17
2023-03-15T14:27:25.960Z,45.00
2023-03-15T14:33:26.104Z,44.65
2023-03-15T14:36:19.567Z,45.72
2023-03-15T14:38:53.790Z,43.96
2023-03-15T14:41:54.241Z,44.32
2023-03-15T14:44:37.266Z,44.58
2023-03-15T14:48:12.684Z,43.86
2023-03-15T14:54:52.522Z,45.39
2023-03-15T14:58:05.442Z,44.18
2023-03-15T15:00:55.547Z,43.66
2023-03-15T16:29:29.590Z,47.31
2023-03-15T16:32:33.376Z,46.21
2023-03-15T17:43:11.670Z,60.16
2023-03-15T17:45:44.583Z,59.28
2023-03-15T17:51:17.810Z,61.44
2023-03-15T17:53:50.859Z,63.21
2023-03-15T17:56:23.295Z,62.63
2023-03-15T17:58:53.043Z,58.50
2023-03-15T18:02:08.136Z,59.22
2023-03-15T22:39:02.571Z,86.22
2023-03-15T23:18:52.824Z,86.61
2023-03-15T23:34:57.259Z,87.23
2023-03-15T23:37:42.875Z,88.34
2023-03-15T23:40:41.664Z,88.34
2023-03-15T23:43:17.300Z,86.98
2023-03-15T23:59:50.904Z,87.71
